Terminal Aerodrome Forecast
Issued by NWS

Home | Current Version | Previous Version | Text Only | Print | Product List | Glossary On
Versions: 1 2 3 4 5 6 7 8 9 10 11 12 13 14 15
000
FTUS42 KMLB 180536
TAFSUA
TAF
KSUA 180536Z 1806/1906 20005KT P6SM FEW015 SCT100
     FM181400 24006KT P6SM SCT020 BKN250
     FM181900 09009KT P6SM VCTS SCT030CB BKN100
     FM190000 11004KT P6SM VCSH SCT030 BKN080 BKN250
     FM190300 VRB03KT P6SM FEW030 SCT080 BKN250=

USA.gov is the U.S. government's official web portal to all federal, state and local government web resources and services.